createdAt,value
2019-03-22T00:00:27.999Z,101957.94
2019-03-22T00:05:30.873Z,101956.13
2019-03-22T00:10:33.668Z,101946.94
2019-03-22T00:15:36.348Z,101946.94
2019-03-22T00:20:38.975Z,101944.41
2019-03-22T00:25:41.580Z,101941.34
2019-03-22T00:30:44.216Z,101934.25
2019-03-22T00:35:46.876Z,101933.88
2019-03-22T00:40:49.668Z,101937.99
2019-03-22T00:45:52.358Z,101932.23
2019-03-22T00:50:55.067Z,101918.59
2019-03-22T00:55:57.666Z,101930.20
2019-03-22T01:01:00.665Z,101930.46
2019-03-22T01:06:03.420Z,101919.43
2019-03-22T01:11:06.100Z,101917.73
2019-03-22T01:16:08.987Z,101914.95
2019-03-22T01:21:11.821Z,101914.84
2019-03-22T01:26:14.525Z,101911.59
2019-03-22T01:31:17.211Z,101910.77
2019-03-22T01:36:19.808Z,101914.44
2019-03-22T01:41:22.462Z,101912.40
2019-03-22T01:46:25.140Z,101908.95
2019-03-22T01:51:27.823Z,101905.31
2019-03-22T01:56:30.771Z,101910.39
2019-03-22T02:01:33.709Z,101913.53
2019-03-22T02:06:36.443Z,101908.86
2019-03-22T02:11:39.025Z,101908.44
2019-03-22T02:16:41.668Z,101912.13
2019-03-22T02:21:44.504Z,101912.63
2019-03-22T02:26:47.138Z,101923.22
2019-03-22T02:31:49.880Z,101925.52
2019-03-22T02:36:52.473Z,101923.67
2019-03-22T02:41:55.061Z,101908.78
2019-03-22T02:46:57.844Z,101908.56
2019-03-22T02:52:00.420Z,101912.11
2019-03-22T02:57:03.217Z,101906.78
2019-03-22T03:02:06.148Z,101910.85
2019-03-22T03:07:08.769Z,101908.98
2019-03-22T03:12:11.383Z,101907.27
2019-03-22T03:17:14.009Z,101910.02
2019-03-22T03:22:16.635Z,101900.93
2019-03-22T03:27:19.202Z,101916.00
2019-03-22T03:32:21.794Z,101897.45
2019-03-22T03:37:24.837Z,101896.35
2019-03-22T03:42:27.437Z,101899.61
2019-03-22T03:47:30.067Z,101902.73
2019-03-22T03:52:32.633Z,101897.67
2019-03-22T03:57:35.416Z,101892.02
2019-03-22T04:02:38.522Z,101896.05
2019-03-22T04:07:41.184Z,101892.23
2019-03-22T04:12:44.136Z,101884.48
2019-03-22T04:17:46.716Z,101886.67
2019-03-22T04:22:50.856Z,101881.60
2019-03-22T04:27:53.449Z,101884.59
2019-03-22T04:32:56.109Z,101887.31
2019-03-22T04:37:58.730Z,101875.09
2019-03-22T04:43:01.366Z,101868.14
2019-03-22T04:48:16.652Z,101877.80
2019-03-22T04:53:22.316Z,101871.18
2019-03-22T04:58:26.783Z,101873.45
2019-03-22T05:03:31.057Z,101874.74
2019-03-22T05:08:37.380Z,101876.67
2019-03-22T05:13:43.073Z,101891.33
2019-03-22T05:18:48.266Z,101895.73
2019-03-22T05:23:52.867Z,101894.78
2019-03-22T05:28:55.882Z,101898.63
2019-03-22T05:33:58.548Z,101902.68
2019-03-22T05:39:01.207Z,101907.09
2019-03-22T05:44:03.819Z,101914.67
2019-03-22T05:49:06.742Z,101917.36
2019-03-22T05:54:09.931Z,101925.58
2019-03-22T05:59:12.684Z,101938.80
2019-03-22T06:04:15.718Z,101934.30
2019-03-22T06:09:18.542Z,101945.69
2019-03-22T06:14:21.204Z,101948.71
2019-03-22T06:19:23.867Z,101944.28
2019-03-22T06:24:26.498Z,101958.31
2019-03-22T06:29:29.158Z,101956.97
2019-03-22T06:34:31.746Z,101969.27
2019-03-22T06:39:34.373Z,101969.22
2019-03-22T06:44:37.029Z,101970.42
2019-03-22T06:49:39.743Z,101971.27
2019-03-22T06:54:42.398Z,101967.24
2019-03-22T06:59:45.048Z,101965.84
2019-03-22T07:04:48.852Z,101978.37
2019-03-22T07:09:51.469Z,101975.87
2019-03-22T07:14:54.196Z,101986.41
2019-03-22T07:19:56.793Z,101978.63
2019-03-22T07:24:59.462Z,101973.05
2019-03-22T07:30:02.124Z,101973.59
2019-03-22T07:35:04.877Z,101975.30
2019-03-22T07:40:07.807Z,101974.08
2019-03-22T07:45:10.600Z,101973.66
2019-03-22T07:50:13.570Z,101971.58
2019-03-22T07:55:16.216Z,101972.34
2019-03-22T08:00:30.297Z,101975.98
2019-03-22T08:05:23.557Z,101975.43
2019-03-22T08:10:26.131Z,101976.48
2019-03-22T08:15:32.676Z,101969.13
2019-03-22T08:20:35.296Z,101963.67
2019-03-22T08:25:37.983Z,101966.73
2019-03-22T08:30:43.258Z,101959.70
2019-03-22T08:35:45.568Z,101958.83
2019-03-22T08:40:48.172Z,101953.27
2019-03-22T08:45:50.774Z,101949.45
2019-03-22T08:50:53.513Z,101952.16
2019-03-22T08:55:56.075Z,101948.02
2019-03-22T09:00:59.092Z,101935.11
2019-03-22T09:06:01.871Z,101948.03
2019-03-22T09:11:04.607Z,101939.52
2019-03-22T09:16:07.283Z,101939.52
2019-03-22T09:21:10.227Z,101939.44
2019-03-22T09:26:12.883Z,101934.61
2019-03-22T09:31:15.893Z,101934.47
2019-03-22T09:36:18.727Z,101933.16
2019-03-22T09:41:21.495Z,101928.63
2019-03-22T09:46:24.093Z,101931.33
2019-03-22T09:51:26.744Z,101915.36
2019-03-22T09:56:29.456Z,101910.98
2019-03-22T10:01:32.123Z,101902.42
2019-03-22T10:06:34.746Z,101891.49
2019-03-22T10:11:37.503Z,101889.77
2019-03-22T10:16:40.126Z,101882.45
2019-03-22T10:21:42.783Z,101882.73
2019-03-22T10:26:45.642Z,101879.53
2019-03-22T10:31:48.539Z,101878.69
2019-03-22T10:36:51.217Z,101873.91
2019-03-22T10:41:53.960Z,101879.80
2019-03-22T10:46:56.747Z,101866.20
2019-03-22T10:51:59.444Z,101866.52
2019-03-22T10:57:02.120Z,101857.06
2019-03-22T11:02:07.658Z,101858.17
2019-03-22T11:07:09.346Z,101856.34
2019-03-22T11:12:12.582Z,101842.63
2019-03-22T11:17:15.321Z,101844.27
2019-03-22T11:22:17.927Z,101834.00
2019-03-22T11:27:22.072Z,101824.86
2019-03-22T11:32:24.821Z,101825.66
2019-03-22T11:37:27.695Z,101816.58
2019-03-22T11:42:30.420Z,101823.73
2019-03-22T11:47:33.352Z,101812.45
2019-03-22T11:52:36.044Z,101804.09
2019-03-22T11:57:38.816Z,101798.05
2019-03-22T12:02:41.467Z,101782.91
2019-03-22T12:07:44.189Z,101794.17
2019-03-22T12:12:47.801Z,101784.06
2019-03-22T12:17:50.638Z,101788.44
2019-03-22T12:22:53.435Z,101776.42
2019-03-22T12:27:56.131Z,101775.89
2019-03-22T12:32:59.070Z,101772.13
2019-03-22T12:38:01.713Z,101766.89
2019-03-22T12:43:04.802Z,101754.87
2019-03-22T12:48:07.547Z,101747.71
2019-03-22T12:53:10.313Z,101742.80
2019-03-22T12:58:12.949Z,101737.66
2019-03-22T13:03:15.573Z,101719.70
2019-03-22T13:08:18.236Z,101712.70
2019-03-22T13:13:21.165Z,101702.12
2019-03-22T13:18:23.843Z,101693.66
2019-03-22T13:23:26.745Z,101691.97
2019-03-22T13:28:29.698Z,101679.92
2019-03-22T13:33:32.390Z,101677.03
2019-03-22T13:38:35.046Z,101664.08
2019-03-22T13:43:37.819Z,101661.14
2019-03-22T13:48:40.476Z,101650.93
2019-03-22T13:53:43.257Z,101642.10
2019-03-22T13:58:45.918Z,101629.98
2019-03-22T14:03:48.553Z,101634.73
2019-03-22T14:08:51.209Z,101620.53
2019-03-22T14:13:53.827Z,101614.09
2019-03-22T14:18:56.380Z,101603.44
2019-03-22T14:23:59.123Z,101602.72
2019-03-22T14:29:01.794Z,101589.09
2019-03-22T14:34:04.431Z,101576.48
2019-03-22T14:39:07.748Z,101579.52
2019-03-22T14:44:10.400Z,101567.81
2019-03-22T14:49:13.150Z,101557.24
2019-03-22T14:54:15.767Z,101558.28
2019-03-22T14:59:18.489Z,101543.47
2019-03-22T15:04:21.161Z,101540.61
2019-03-22T15:09:23.767Z,101540.50
2019-03-22T15:14:41.127Z,101540.99
2019-03-22T15:20:01.778Z,101535.27
2019-03-22T15:25:36.859Z,101527.09
2019-03-22T15:30:58.060Z,101518.75
2019-03-22T15:36:18.558Z,101515.26
2019-03-22T15:41:21.275Z,101522.72
2019-03-22T15:46:23.946Z,101509.51
2019-03-22T15:51:26.853Z,101502.25
2019-03-22T15:56:29.579Z,101500.98
2019-03-22T16:01:32.347Z,101491.11
2019-03-22T16:06:34.958Z,101494.02
2019-03-22T16:11:37.567Z,101487.39
2019-03-22T16:16:42.011Z,101491.31
2019-03-22T16:21:44.642Z,101484.61
2019-03-22T16:26:47.371Z,101483.95
2019-03-22T16:31:50.328Z,101481.39
2019-03-22T16:36:53.074Z,101481.97
2019-03-22T16:41:55.723Z,101486.09
2019-03-22T16:46:58.458Z,101482.45
2019-03-22T16:52:01.245Z,101476.27
2019-03-22T16:57:03.902Z,101472.30
2019-03-22T17:02:06.558Z,101469.45
2019-03-22T17:07:09.290Z,101476.36
2019-03-22T17:12:12.036Z,101486.33
2019-03-22T17:17:14.692Z,101473.74
2019-03-22T17:22:17.339Z,101476.13
2019-03-22T17:27:19.931Z,101485.44
2019-03-22T17:32:22.794Z,101485.13
2019-03-22T17:37:25.490Z,101489.32
2019-03-22T17:42:28.209Z,101484.59
2019-03-22T17:47:30.856Z,101483.71
2019-03-22T17:52:34.668Z,101485.11
2019-03-22T17:57:37.364Z,101480.47
2019-03-22T18:02:39.977Z,101479.77
2019-03-22T18:07:42.914Z,101476.73
2019-03-22T18:12:45.539Z,101482.45
2019-03-22T18:17:48.121Z,101482.11
2019-03-22T18:22:50.969Z,101482.95
2019-03-22T18:27:53.757Z,101489.36
2019-03-22T18:32:56.520Z,101484.40
2019-03-22T18:37:59.384Z,101488.81
2019-03-22T18:43:02.112Z,101498.91
2019-03-22T18:48:04.886Z,101497.52
2019-03-22T18:53:07.789Z,101498.91
2019-03-22T18:58:10.659Z,101506.41
2019-03-22T19:03:13.318Z,101503.95
2019-03-22T19:08:15.942Z,101505.38
2019-03-22T19:13:18.768Z,101503.73
2019-03-22T19:18:21.521Z,101503.55
2019-03-22T19:23:24.180Z,101502.83
2019-03-22T19:28:26.774Z,101501.04
2019-03-22T19:33:29.892Z,101499.02
2019-03-22T19:38:32.500Z,101495.31
2019-03-22T19:43:35.178Z,101493.78
2019-03-22T19:48:37.802Z,101491.97
2019-03-22T19:53:40.490Z,101490.25
2019-03-22T19:58:43.289Z,101485.90
2019-03-22T20:03:46.292Z,101486.45
2019-03-22T20:08:48.863Z,101484.29
2019-03-22T20:13:52.540Z,101489.55
2019-03-22T20:18:55.187Z,101490.86
2019-03-22T20:23:57.832Z,101491.47
2019-03-22T20:29:00.595Z,101488.14
2019-03-22T20:34:03.216Z,101484.98
2019-03-22T20:39:06.406Z,101490.63
2019-03-22T20:44:09.041Z,101497.89
2019-03-22T20:49:11.921Z,101497.34
2019-03-22T20:54:14.581Z,101491.80
2019-03-22T20:59:17.250Z,101498.20
2019-03-22T21:04:22.009Z,101501.73
2019-03-22T21:09:24.728Z,101502.98
2019-03-22T21:14:27.541Z,101501.13
2019-03-22T21:19:30.354Z,101503.96
2019-03-22T21:24:33.033Z,101501.80
2019-03-22T21:29:43.652Z,101496.80
2019-03-22T21:34:40.278Z,101495.90
2019-03-22T21:39:42.944Z,101488.21
2019-03-22T21:44:45.619Z,101488.74
2019-03-22T21:49:48.300Z,101488.74
2019-03-22T21:54:51.077Z,101489.21
2019-03-22T21:59:53.699Z,101480.06
2019-03-22T22:04:56.733Z,101480.06
2019-03-22T22:09:59.368Z,101480.06
2019-03-22T22:15:01.980Z,101483.38
2019-03-22T22:20:04.846Z,101480.97
2019-03-22T22:25:07.850Z,101480.83
2019-03-22T22:30:10.736Z,101476.72
2019-03-22T22:35:13.362Z,101474.30
2019-03-22T22:40:16.081Z,101466.30
2019-03-22T22:45:19.219Z,101465.70
2019-03-22T22:50:22.353Z,101464.77
2019-03-22T22:55:25.122Z,101470.45
2019-03-22T23:00:28.440Z,101470.17
2019-03-22T23:05:31.055Z,101467.25
2019-03-22T23:10:33.741Z,101467.78
2019-03-22T23:15:36.454Z,101467.78
2019-03-22T23:20:39.111Z,101471.82
2019-03-22T23:25:41.671Z,101465.73
2019-03-22T23:30:44.319Z,101473.46
2019-03-22T23:35:46.956Z,101468.92
2019-03-22T23:40:49.629Z,101453.64
2019-03-22T23:45:52.351Z,101453.64
2019-03-22T23:50:54.951Z,101461.64
2019-03-22T23:55:57.865Z,101459.69
